Tiempo atmosférico en la estación meteorológica de Tijarafe, Santa Cruz de Tenerife (733 m.)



Fecha
DESCASC
Temp. máxima en grados centígrados (hora)
DESCASC
Temp. mínima en grados centígrados (hora)
DESCASC
Temp. media en grados centígrados
DESCASC
Racha de viento máxima en m/sg (hora)
DESCASC
Velocidad máxima media en intervalos de 10 minutos(hora)
DESCASC
Precipitaciones diarias en mm
DESCASC
Precipitaciones de 00:00 a 06:00 en mm
DESCASC
Precipitaciones de 06:00 a 12:00 en mm
DESCASC
Precipitaciones de 12:00 a 18:00 en mm
DESCASC
Precipitaciones de 18:00 a 24:00 en mm
DESCASC
18-11-2019 17.5 (11:40) 11.8 (06:40) 14.7 5.28 (08:10) 4.72 (08:10) 0 0 0 0 0
17-11-2019 16.7 (15:30) 12.3 (03:20) 14.5 6.67 (03:10) 5 (04:10) 0 0 0 0 0
16-11-2019 18.5 (14:30) 12.2 (06:20) 15.3 8.33 (19:10) 5.28 (19:30) 0 0 0 0 0
15-11-2019 18.7 (15:40) 13.2 (07:00) 16 6.67 (18:30) 4.44 (18:20) 0 0 0 0 0
14-11-2019 18.8 (12:00) 13.6 (00:00) 16.2 8.61 (02:10) 5.83 (02:00) 0 0 0 0 0
13-11-2019 19.6 (13:50) 14.1 (00:00) 16.9 8.61 (12:10) 6.39 (12:00) 0 0 0 0 0
12-11-2019 20.6 (13:40) 14.1 (00:00) 17.4 11.67 (06:20) 7.22 (17:20) 0 0 0 0 0
11-11-2019 21.6 (14:40) 13.6 (07:30) 17.6 8.89 (16:20) 7.22 (16:20) 0 0 0 0 0
10-11-2019 19.4 (15:30) 13.7 (00:00) 16.5 10 (17:30) 4.72 (00:20) 0 0 0 0 0
09-11-2019 19.1 (16:10) 13 (00:00) 16.1 15.28 (22:40) 6.11 (15:00) 0 0 0 0 0
08-11-2019 20.5 (15:00) 13.9 (23:59) 17.2 9.44 (15:10) 5.56 (04:40) 0 0 0 0 0
07-11-2019 20.1 (16:10) 13.5 (00:00) 16.8 6.94 (13:40) 3.61 (22:40) 0 0 0 0 0
06-11-2019 18.3 (12:50) 13.9 (00:00) 16.1 7.5 (16:50) 5 (16:50) 0 0 0 0 0
05-11-2019 21.9 (15:20) 15.1 (00:00) 18.5 6.11 (12:20) 3.61 (23:20) 0 0 0 0 0
04-11-2019 21.3 (15:40) 15.8 (00:00) 18.5 8.89 (12:20) 6.67 (12:20) 0 0 0 0 0
03-11-2019 26 (15:00) 17.2 (00:00) 21.6 5.56 (21:50) 3.61 (22:20) 0 0 0 0 0
02-11-2019 28.1 (13:20) 20.7 (00:00) 24.4 12.78 (01:40) 4.17 (14:50) 0 0 0 0 0
01-11-2019 26.2 (14:10) 18.4 (00:00) 22.3 13.06 (23:10) 5.83 (05:50) 0 0 0 0 0
31-10-2019 24.6 (13:10) 19.4 (19:30) 22 10 (23:20) 5.83 (23:30) 0 0 0 0 0
30-10-2019 27.3 (15:20) 21.6 (00:00) 24.4 5.56 (23:59) 3.89 (23:50) 0 0 0 0 0
29-10-2019 27.7 (14:10) 21 (00:00) 24.4 5 (15:20) 3.33 (15:20) 0 0 0 0 0
28-10-2019 26.8 (13:10) 20.6 (00:00) 23.7 6.39 (15:10) 2.5 (14:50) 0 0 0 0 0
27-10-2019 27.8 (15:20) 20 (00:00) 23.9 10.28 (01:10) 5.83 (01:50) 0.4 0.4 0 0 0
26-10-2019 24.2 (15:50) 16.9 (00:00) 20.6 19.44 (03:50) 10 (03:50) 8.8 4.2 2.8 1.4 0.4
25-10-2019 25.6 (14:00) 13.2 (00:00) 19.4 7.22 (04:40) 3.33 (04:10) 0 0 0 0 0
24-10-2019 18.8 (15:40) 13.2 (00:00) 16 7.5 (16:40) 4.72 (16:40) 0 0 0 0 0
23-10-2019 18.3 (13:10) 12.9 (00:00) 15.6 5 (13:20) 3.33 (13:20) 0 0 0 0 0
22-10-2019 19.8 (13:50) 13 (05:40) 16.4 6.11 (13:00) 3.89 (05:10) 0 0 0 0 0

Gráficas

Temp. máximas Temp. mínimas Temp. medias Precipitaciones Rachas de viento máximas Velocidades máximas media en intervalos de 10 minutos

Datos horarios

Fecha y hora oficial Temperatura (ºC) Velocidad del viento (km/h) Dirección del viento Racha (km/h) Dirección de racha Precipitación (mm) Presión (hPa) Tendencia (hPa) Humedad (%)
2019-11-20 23:00:00 14 3 Noroeste 8 Noroeste 0 -- -- 97
2019-11-20 22:00:00 14.1 0 Calma 11 Nordeste 0 -- -- 95
2019-11-20 21:00:00 14.6 9 Norte 16 Norte 0 -- -- 87
2019-11-20 20:00:00 14.2 5 Norte 12 Noroeste 0 -- -- 94
2019-11-20 19:00:00 14.7 4 Noroeste 10 Norte 0 -- -- 90
2019-11-20 18:00:00 15.2 3 Sudeste 7 Este 0 -- -- 94
2019-11-20 17:00:00 15.4 5 Noroeste 8 Noroeste 0 -- -- 93
2019-11-20 16:00:00 15.1 3 Noroeste 14 Noroeste 0 -- -- 94
2019-11-20 15:00:00 15 12 Norte 23 Noroeste 0 -- -- 98
2019-11-20 14:00:00 15.8 9 Norte 18 Noroeste 0.2 -- -- 95
2019-11-20 13:00:00 15.4 5 Noroeste 16 Noroeste 0.6 -- -- 97
2019-11-20 12:00:00 15.2 8 Norte 15 Norte 0 -- -- 96
2019-11-20 11:00:00 15 5 Norte 15 Norte 0 -- -- 97
2019-11-20 10:00:00 14.3 7 Norte 13 Noroeste 0.2 -- -- 97
2019-11-20 09:00:00 13.6 6 Nordeste 10 Nordeste 0 -- -- 96
2019-11-20 08:00:00 13.1 7 Norte 15 Nordeste 0 -- -- 93
2019-11-20 07:00:00 13 7 Norte 19 Norte 0 -- -- 84
2019-11-20 06:00:00 13.1 9 Nordeste 19 Nordeste 0 -- -- 85
2019-11-20 05:00:00 12.6 9 Norte 19 Nordeste 0 -- -- 84
2019-11-20 04:00:00 12.4 9 Norte 14 Norte 0 -- -- 87
2019-11-20 03:00:00 12.4 9 Norte 15 Norte 0 -- -- 88
2019-11-20 02:00:00 12.5 6 Norte 12 Norte 0 -- -- 89
2019-11-20 01:00:00 12.7 3 Nordeste 5 Norte 0 -- -- 90
2019-11-20 00:00:00 12.9 0 Calma 5 Norte 0 -- -- 91
2019-11-19 23:00:00 12.8 2 Noroeste 8 Norte 0 -- -- 92
2019-11-19 22:00:00 13 2 Norte 5 Norte 0 -- -- 93
2019-11-19 21:00:00 13.7 0 Calma 6 Este 0 -- -- 88
2019-11-19 20:00:00 14.4 2 Norte 6 Norte 0 -- -- 85
2019-11-19 19:00:00 15 2 Nordeste 12 Oeste 0 -- -- 83
2019-11-19 18:00:00 17.3 4 Oeste 12 Oeste 0 -- -- 75
2019-11-19 17:00:00 17.9 4 Noroeste 24 Noroeste 0 -- -- 71
2019-11-19 16:00:00 18.2 9 Noroeste 22 Noroeste 0 -- -- 68
2019-11-19 15:00:00 16.5 14 Noroeste 35 Noroeste 0 -- -- 76
2019-11-19 14:00:00 15.5 20 Norte 29 Norte 0 -- -- 82
2019-11-19 13:00:00 15.7 17 Noroeste 26 Noroeste 0 -- -- 81
2019-11-19 12:00:00 15.5 4 Noroeste 22 Noroeste 0 -- -- 78
2019-11-19 11:00:00 16.4 4 Noroeste 12 Noroeste 0 -- -- 69
2019-11-19 10:00:00 14.3 3 Noroeste 5 Oeste 0 -- -- 72
2019-11-19 09:00:00 12.8 0 Calma 7 Sudeste 0 -- -- 76
2019-11-19 08:00:00 12.3 4 Noroeste 6 Noroeste 0 -- -- 79
2019-11-19 07:00:00 12.5 3 Sudeste 10 Sudeste 0 -- -- 75
2019-11-19 06:00:00 12.4 0 Calma 8 Norte 0 -- -- 76
2019-11-19 05:00:00 12.4 6 Norte 9 Norte 0 -- -- 78
2019-11-19 04:00:00 12.3 2 Norte 4 Norte 0 -- -- 82
2019-11-19 03:00:00 12.4 0 Calma 5 Sudeste 0 -- -- 87
2019-11-19 02:00:00 12.5 0 Calma 8 Nordeste 0 -- -- 79
2019-11-19 01:00:00 12.5 3 Noroeste 4 Noroeste 0 -- -- 88
2019-11-19 00:00:00 12.6 0 Calma 4 Sudeste 0 -- -- 81
2019-11-18 23:00:00 12.7 6 Norte 12 Norte 0 -- -- 84
2019-11-18 22:00:00 12.9 0 Calma 5 Sur 0 -- -- 86
2019-11-18 21:00:00 13.1 0 Calma 17 Norte 0 -- -- 91
2019-11-18 20:00:00 13.2 9 Norte 12 Norte 0 -- -- 90
2019-11-18 19:00:00 14.4 0 Calma 7 Sudoeste 0 -- -- 88
2019-11-18 18:00:00 15.6 5 Noroeste 12 Noroeste 0 -- -- 83
2019-11-18 17:00:00 15.7 4 Noroeste 11 Oeste 0 -- -- 85
2019-11-18 16:00:00 15.5 4 Noroeste 11 Oeste 0 -- -- 80
2019-11-18 15:00:00 15.8 6 Noroeste 13 Oeste 0 -- -- 78
2019-11-18 14:00:00 16.1 3 Noroeste 12 Noroeste 0 -- -- 71
2019-11-18 13:00:00 16.3 5 Noroeste 10 Noroeste 0 -- -- 70
2019-11-18 12:00:00 16.9 3 Norte 19 Oeste 0 -- -- 73
2019-11-18 11:00:00 16.6 5 Noroeste 15 Oeste 0 -- -- 74
2019-11-18 10:00:00 14.5 0 Calma 13 Nordeste 0 -- -- 77
2019-11-18 09:00:00 12.7 7 Nordeste 19 Norte 0 -- -- 81
2019-11-18 08:00:00 12 14 Norte 17 Norte 0 -- -- 86
2019-11-18 07:00:00 11.8 5 Norte 11 Norte 0 -- -- 87
2019-11-18 06:00:00 12 4 Norte 7 Norte 0 -- -- 93
2019-11-18 05:00:00 12.3 0 Calma 14 Norte 0 -- -- 92
2019-11-18 04:00:00 12 10 Norte 13 Norte 0 -- -- 87
2019-11-18 03:00:00 12.4 3 Este 8 Nordeste 0 -- -- 88
2019-11-18 02:00:00 12.5 6 Norte 9 Norte 0 -- -- 93
2019-11-18 01:00:00 12.6 6 Noroeste 7 Noroeste 0 -- -- 92
2019-11-18 00:00:00 12.7 0 Calma 10 Nordeste 0 -- -- 90
2019-11-17 23:00:00 12.9 4 Nordeste 9 Noroeste 0 -- -- 89
2019-11-17 22:00:00 13.3 4 Oeste 8 Noroeste 0 -- -- 89
2019-11-17 21:00:00 13.6 0 Calma 5 Oeste 0 -- -- 86
2019-11-17 20:00:00 13.9 2 Noroeste 12 Noroeste 0 -- -- 87
2019-11-17 19:00:00 14.2 9 Noroeste 17 Noroeste 0 -- -- 89
2019-11-17 18:00:00 15.4 11 Noroeste 18 Oeste 0 -- -- 83
2019-11-17 17:00:00 15.6 13 Noroeste 22 Norte 0 -- -- 77
2019-11-17 16:00:00 16.6 8 Noroeste 17 Noroeste 0 -- -- 72
2019-11-17 15:00:00 15.5 9 Nordeste 19 Nordeste 0 -- -- 73
2019-11-17 14:00:00 14.3 9 Noroeste 21 Noroeste 0 -- -- 90
2019-11-17 13:00:00 16 13 Noroeste 23 Noroeste 0 -- -- 78
2019-11-17 12:00:00 16.1 11 Noroeste 19 Noroeste 0 -- -- 71
2019-11-17 11:00:00 16.4 7 Noroeste 12 Noroeste 0 -- -- 70
2019-11-17 10:00:00 14.8 0 Calma 4 Noroeste 0 -- -- 77
2019-11-17 09:00:00 12.6 5 Norte 20 Norte 0 -- -- 82
2019-11-17 08:00:00 12.6 12 Nordeste 18 Nordeste 0 -- -- 79
2019-11-17 07:00:00 12.4 9 Noroeste 14 Nordeste 0 -- -- 83
2019-11-17 06:00:00 12.7 0 Calma 8 Norte 0 -- -- 81
2019-11-17 05:00:00 12.6 10 Nordeste 24 Norte 0 -- -- 81
2019-11-17 04:00:00 12.4 18 Norte 24 Norte 0 -- -- 83
2019-11-17 03:00:00 12.4 10 Norte 17 Nordeste 0 -- -- 80
2019-11-17 02:00:00 12.6 8 Norte 17 Norte 0 -- -- 83
2019-11-17 01:00:00 12.8 9 Norte 15 Nordeste 0 -- -- 81
2019-11-17 00:00:00 13.3 8 Norte 18 Norte 0 -- -- 79
2019-11-16 23:00:00 13.8 12 Norte 29 Norte 0 -- -- 74
2019-11-16 22:00:00 13.6 18 Norte 24 Norte 0 -- -- 76
2019-11-16 21:00:00 13.9 12 Nordeste 22 Nordeste 0 -- -- 72
2019-11-16 20:00:00 14.1 17 Nordeste 30 Norte 0 -- -- 73
2019-11-16 19:00:00 14.4 17 Norte 24 Norte 0 -- -- 75
2019-11-16 18:00:00 16.2 17 Norte 24 Norte 0 -- -- 68
2019-11-16 17:00:00 17 13 Noroeste 28 Noroeste 0 -- -- 65
2019-11-16 16:00:00 17.1 17 Noroeste 27 Noroeste 0 -- -- 67
2019-11-16 15:00:00 17.5 9 Noroeste 21 Oeste 0 -- -- 66
2019-11-16 14:00:00 17.6 9 Noroeste 23 Noroeste 0 -- -- 65
2019-11-16 13:00:00 17.1 8 Noroeste 18 Norte 0 -- -- 65
2019-11-16 12:00:00 16.5 8 Noroeste 21 Noroeste 0 -- -- 71
2019-11-16 11:00:00 16.2 9 Noroeste 16 Noroeste 0 -- -- 71
2019-11-16 10:00:00 14.2 3 Noroeste 10 Noroeste 0 -- -- 82
2019-11-16 09:00:00 12.6 5 Norte 11 Nordeste 0 -- -- 87
2019-11-16 08:00:00 12.5 2 Sur 10 Norte 0 -- -- 88
2019-11-16 07:00:00 12.2 6 Norte 10 Norte 0 -- -- 88
2019-11-16 06:00:00 12.4 6 Norte 10 Noroeste 0 -- -- 85
2019-11-16 05:00:00 12.3 4 Norte 6 Nordeste 0 -- -- 86
2019-11-16 04:00:00 12.5 2 Norte 6 Nordeste 0 -- -- 85
2019-11-16 03:00:00 12.6 5 Nordeste 15 Nordeste 0 -- -- 84
2019-11-16 02:00:00 12.9 6 Nordeste 11 Norte 0 -- -- 81
2019-11-16 01:00:00 13.4 0 Calma 3 Oeste 0 -- -- 79
2019-11-16 00:00:00 13.5 0 Calma 12 Noroeste 0 -- -- 78
2019-11-15 23:00:00 13.4 6 Noroeste 12 Nordeste 0 -- -- 81
2019-11-15 22:00:00 13.5 5 Norte 9 Nordeste 0 -- -- 81
2019-11-15 21:00:00 13.6 2 Norte 6 Noroeste 0 -- -- 82
2019-11-15 20:00:00 14.1 3 Noroeste 10 Oeste 0 -- -- 81
2019-11-15 19:00:00 14.5 6 Oeste 24 Noroeste 0 -- -- 80
2019-11-15 18:00:00 16.4 10 Noroeste 19 Noroeste 0 -- -- 74
2019-11-15 17:00:00 16.6 6 Norte 18 Noroeste 0 -- -- 72
2019-11-15 16:00:00 17.6 9 Noroeste 17 Noroeste 0 -- -- 69
2019-11-15 15:00:00 18.1 4 Norte 21 Noroeste 0 -- -- 68
2019-11-15 14:00:00 17.8 11 Noroeste 19 Noroeste 0 -- -- 69
2019-11-15 13:00:00 17.4 10 Noroeste 22 Noroeste 0 -- -- 68
2019-11-15 12:00:00 17.5 10 Noroeste 23 Noroeste 0 -- -- 68
2019-11-15 11:00:00 17.4 6 Noroeste 16 Noroeste 0 -- -- 67
2019-11-15 10:00:00 15.6 2 Norte 12 Sudoeste 0 -- -- 74
2019-11-15 09:00:00 13.8 3 Noroeste 8 Norte 0 -- -- 81
2019-11-15 08:00:00 13.4 0 Calma 7 Norte 0 -- -- 83
2019-11-15 07:00:00 13.2 0 Calma 11 Norte 0 -- -- 83
2019-11-15 06:00:00 13.5 5 Norte 10 Nordeste 0 -- -- 81
2019-11-15 05:00:00 13.4 9 Norte 12 Nordeste 0 -- -- 83
2019-11-15 04:00:00 13.4 6 Norte 8 Norte 0 -- -- 88
2019-11-15 03:00:00 13.9 6 Norte 18 Norte 0 -- -- 86
2019-11-15 02:00:00 14.1 6 Norte 10 Norte 0 -- -- 85
2019-11-15 01:00:00 14.2 6 Norte 9 Noroeste 0 -- -- 86
2019-11-15 00:00:00 14.2 6 Norte 12 Norte 0 -- -- 86
2019-11-14 23:00:00 14.4 6 Noroeste 20 Norte 0 -- -- 87
2019-11-14 22:00:00 14.5 8 Norte 16 Norte 0 -- -- 85
2019-11-14 21:00:00 14.6 6 Norte 13 Norte 0 -- -- 85
2019-11-14 20:00:00 15 10 Norte 24 Norte 0 -- -- 81
2019-11-14 19:00:00 15.4 19 Norte 25 Norte 0 -- -- 81
2019-11-14 18:00:00 16.1 13 Norte 21 Norte 0 -- -- 81
2019-11-14 17:00:00 17.4 11 Noroeste 20 Noroeste 0 -- -- 75
2019-11-14 16:00:00 17.8 12 Noroeste 20 Noroeste 0 -- -- 78
2019-11-14 15:00:00 17.9 9 Noroeste 23 Noroeste 0 -- -- 78
2019-11-14 14:00:00 17.8 8 Noroeste 27 Noroeste 0 -- -- 78
2019-11-14 13:00:00 17.7 12 Noroeste 20 Noroeste 0 -- -- 74
2019-11-14 12:00:00 18.8 5 Noroeste 18 Noroeste 0 -- -- 66
2019-11-14 11:00:00 17.6 5 Noroeste 14 Sudoeste 0 -- -- 71
2019-11-14 10:00:00 15.5 2 Noroeste 6 Norte 0 -- -- 77
2019-11-14 09:00:00 14.6 5 Nordeste 15 Norte 0 -- -- 79
2019-11-14 08:00:00 14.3 14 Norte 20 Nordeste 0 -- -- 75
2019-11-14 07:00:00 14 8 Norte 18 Norte 0 -- -- 83
2019-11-14 06:00:00 14.3 6 Este 21 Norte 0 -- -- 75
2019-11-14 05:00:00 13.7 16 Nordeste 22 Norte 0 -- -- 82
2019-11-14 04:00:00 13.8 5 Norte 18 Nordeste 0 -- -- 85
2019-11-14 03:00:00 13.9 13 Nordeste 31 Norte 0 -- -- 82
2019-11-14 02:00:00 13.7 21 Norte 26 Norte 0 -- -- 83
2019-11-14 01:00:00 13.8 14 Norte 23 Norte 0 -- -- 83
2019-11-14 00:00:00 14.3 10 Noroeste 28 Nordeste 0 -- -- 80
2019-11-13 23:00:00 14.2 19 Norte 26 Nordeste 0 -- -- 77
2019-11-13 22:00:00 14.2 6 Noroeste 17 Noroeste 0 -- -- 77
2019-11-13 21:00:00 14.4 18 Norte 31 Norte 0 -- -- 83
2019-11-13 20:00:00 15.2 12 Norte 25 Nordeste 0 -- -- 75
2019-11-13 19:00:00 15.2 6 Norte 21 Noroeste 0 -- -- 74
2019-11-13 18:00:00 15.9 9 Oeste 20 Noroeste 0 -- -- 73
2019-11-13 17:00:00 17.4 4 Noroeste 17 Sudoeste 0 -- -- 70
2019-11-13 16:00:00 18.5 5 Norte 24 Sur 0 -- -- 76
2019-11-13 15:00:00 19.5 5 Noroeste 14 Sur 0 -- -- 69
2019-11-13 14:00:00 19.1 4 Noroeste 16 Este 0 -- -- 71
2019-11-13 13:00:00 18.5 5 Noroeste 31 Noroeste 0 -- -- 67
2019-11-13 12:00:00 17.9 23 Norte 30 Noroeste 0 -- -- 66
2019-11-13 11:00:00 17.2 18 Norte 22 Noroeste 0 -- -- 69
2019-11-13 10:00:00 16.8 13 Norte 21 Noroeste 0 -- -- 70
2019-11-13 09:00:00 15.9 5 Norte 23 Norte 0 -- -- 62
2019-11-13 08:00:00 15.8 4 Sudeste 17 Norte 0 -- -- 59
2019-11-13 07:00:00 15.8 9 Noroeste 15 Norte 0 -- -- 67
2019-11-13 06:00:00 15.7 11 Norte 14 Norte 0 -- -- 64
2019-11-13 05:00:00 16 10 Norte 14 Nordeste 0 -- -- 63
2019-11-13 04:00:00 16 6 Nordeste 15 Norte 0 -- -- 63
2019-11-13 03:00:00 16.1 7 Norte 17 Norte 0 -- -- 64
2019-11-13 02:00:00 17.4 9 Norte 21 Noroeste 0 -- -- 57
2019-11-13 01:00:00 16.1 5 Noroeste 20 Sur 0 -- -- 67
2019-11-13 00:00:00 14.8 9 Norte 18 Norte 0 -- -- 87
2019-11-12 23:00:00 14.9 0 Calma 21 Norte 0 -- -- 87
2019-11-12 22:00:00 15.2 9 Noroeste 14 Noroeste 0 -- -- 87
2019-11-12 21:00:00 15.2 6 Norte 14 Norte 0 -- -- 88
2019-11-12 20:00:00 15.6 6 Norte 13 Norte 0 -- -- 86
2019-11-12 19:00:00 16.2 9 Norte 21 Norte 0 -- -- 81
2019-11-12 18:00:00 17.8 18 Norte 35 Norte 0 -- -- 74
2019-11-12 17:00:00 19.1 18 Norte 26 Noroeste 0 -- -- 70
2019-11-12 16:00:00 19.8 13 Noroeste 29 Noroeste 0 -- -- 65
2019-11-12 15:00:00 19.2 21 Noroeste 29 Noroeste 0 -- -- 71
2019-11-12 14:00:00 19.7 15 Noroeste 25 Noroeste 0 -- -- 69
2019-11-12 13:00:00 19.1 11 Noroeste 24 Oeste 0 -- -- 71
2019-11-12 12:00:00 19.2 8 Noroeste 24 Este 0 -- -- 65
2019-11-12 11:00:00 18.4 7 Noroeste 21 Oeste 0 -- -- 72
2019-11-12 10:00:00 16.5 0 Calma 14 Sudoeste 0 -- -- 85
2019-11-12 09:00:00 14.7 4 Noroeste 29 Sudoeste 0 -- -- 88
2019-11-12 08:00:00 14.2 6 Nordeste 22 Sudeste 0 -- -- 83
2019-11-12 07:00:00 14.4 7 Norte 42 Nordeste 0 -- -- 81
2019-11-12 06:00:00 14.5 9 Nordeste 39 Este 0 -- -- 79
2019-11-12 05:00:00 14.6 5 Sudeste 23 Este 0 -- -- 77
2019-11-12 04:00:00 14.3 4 Norte 22 Sudeste 0 -- -- 85
2019-11-12 03:00:00 14.1 7 Norte 12 Noroeste 0 -- -- 86
2019-11-12 02:00:00 14.3 12 Norte 15 Norte 0 -- -- 85
2019-11-12 01:00:00 14.8 5 Nordeste 18 Norte 0 -- -- 79
2019-11-12 00:00:00 14.5 13 Norte 19 Norte 0 -- -- 85
2019-11-11 23:00:00 14.7 6 Norte 14 Norte 0 -- -- 85
2019-11-11 22:00:00 14.9 10 Norte 15 Norte 0 -- -- 84
2019-11-11 21:00:00 15.1 7 Norte 18 Norte 0 -- -- 82
2019-11-11 20:00:00 15.4 13 Norte 16 Norte 0 -- -- 82
2019-11-11 19:00:00 16.2 6 Norte 15 Noroeste 0 -- -- 78
2019-11-11 18:00:00 18.8 6 Norte 21 Norte 0 -- -- 68
2019-11-11 17:00:00 19.2 15 Norte 32 Norte 0 -- -- 64
2019-11-11 16:00:00 20.6 15 Norte 24 Norte 0 -- -- 59
2019-11-11 15:00:00 21.1 13 Noroeste 22 Noroeste 0 -- -- 54
2019-11-11 14:00:00 20.2 13 Noroeste 28 Oeste 0 -- -- 57
2019-11-11 13:00:00 19.5 8 Noroeste 25 Noroeste 0 -- -- 59
2019-11-11 12:00:00 18.7 13 Noroeste 22 Noroeste 0 -- -- 61
2019-11-11 11:00:00 16.9 10 Norte 27 Norte 0 -- -- 68
2019-11-11 10:00:00 15.7 10 Norte 16 Norte 0 -- -- 74
2019-11-11 09:00:00 14.3 13 Norte 31 Norte 0 -- -- 79
2019-11-11 08:00:00 13.7 21 Norte 26 Norte 0 -- -- 84
2019-11-11 07:00:00 13.9 5 Norte 16 Norte 0 -- -- 84
2019-11-11 06:00:00 13.8 9 Norte 21 Norte 0 -- -- 85
2019-11-11 05:00:00 13.8 15 Norte 22 Norte 0 -- -- 85
2019-11-11 04:00:00 14.1 10 Norte 12 Norte 0 -- -- 83
2019-11-11 03:00:00 14.5 3 Noroeste 14 Norte 0 -- -- 81
2019-11-11 02:00:00 14.4 5 Norte 8 Norte 0 -- -- 84
2019-11-11 01:00:00 14.7 4 Norte 16 Norte 0 -- -- 82
2019-11-11 00:00:00 14.8 12 Norte 19 Norte 0 -- -- 83
2019-11-10 23:00:00 15.1 8 Norte 15 Norte 0 -- -- 80
2019-11-10 22:00:00 15.3 11 Norte 18 Norte 0 -- -- 78
2019-11-10 21:00:00 15.6 10 Norte 15 Norte 0 -- -- 74
2019-11-10 20:00:00 15.7 10 Norte 17 Norte 0 -- -- 71
2019-11-10 19:00:00 16.1 6 Noroeste 28 Este 0 -- -- 70
2019-11-10 18:00:00 18 8 Norte 36 Sudeste 0 -- -- 61
2019-11-10 17:00:00 18.8 16 Noroeste 28 Norte 0 -- -- 59
2019-11-10 16:00:00 19.4 9 Noroeste 22 Noroeste 0 -- -- 57
2019-11-10 15:00:00 19 12 Noroeste 26 Noroeste 0 -- -- 58
2019-11-10 14:00:00 18.8 9 Noroeste 26 Noroeste 0 -- -- 63
2019-11-10 13:00:00 18 13 Noroeste 24 Noroeste 0 -- -- 66
2019-11-10 12:00:00 17.4 13 Noroeste 22 Norte 0 -- -- 69
2019-11-10 11:00:00 16.8 9 Noroeste 18 Noroeste 0 -- -- 74
2019-11-10 10:00:00 16.1 4 Norte 11 Noroeste 0 -- -- 77
2019-11-10 09:00:00 14.6 5 Norte 9 Noroeste 0 -- -- 84
2019-11-10 08:00:00 14.1 6 Norte 20 Nordeste 0 -- -- 85
2019-11-10 07:00:00 13.7 7 Norte 11 Nordeste 0 -- -- 86
2019-11-10 06:00:00 13.9 9 Norte 19 Nordeste 0 -- -- 83
2019-11-10 05:00:00 14 11 Norte 17 Nordeste 0 -- -- 79
2019-11-10 04:00:00 14.2 11 Nordeste 19 Norte 0 -- -- 80
2019-11-10 03:00:00 14 8 Norte 14 Norte 0 -- -- 82
2019-11-10 02:00:00 14.2 10 Norte 16 Norte 0 -- -- 82
2019-11-10 01:00:00 14.6 13 Noroeste 25 Oeste 0 -- -- 80
2019-11-10 00:00:00 14.8 12 Norte 22 Norte 0 -- -- 79
2019-11-09 23:00:00 15.5 9 Noroeste 55 Sudeste 0 -- -- 59
2019-11-09 22:00:00 14.9 19 Norte 32 Oeste 0 -- -- 73
2019-11-09 21:00:00 15.3 8 Norte 17 Este 0 -- -- 68
2019-11-09 20:00:00 15.4 4 Oeste 17 Noroeste 0 -- -- 72
2019-11-09 19:00:00 15.6 10 Noroeste 27 Oeste 0 -- -- 74
2019-11-09 18:00:00 18 9 Oeste 21 Oeste 0 -- -- 63
2019-11-09 17:00:00 19 14 Noroeste 23 Oeste 0 -- -- 57
2019-11-09 16:00:00 19 10 Noroeste 25 Noroeste 0 -- -- 57
2019-11-09 15:00:00 18.8 22 Norte 38 Noroeste 0 -- -- 61
2019-11-09 14:00:00 18.6 17 Noroeste 26 Norte 0 -- -- 66
2019-11-09 13:00:00 18 15 Noroeste 23 Noroeste 0 -- -- 66
2019-11-09 12:00:00 17.5 18 Norte 28 Norte 0 -- -- 68
2019-11-09 11:00:00 16.7 10 Norte 24 Norte 0 -- -- 68
2019-11-09 10:00:00 15.8 11 Norte 24 Norte 0 -- -- 71
2019-11-09 09:00:00 14.5 21 Norte 28 Nordeste 0 -- -- 72
2019-11-09 08:00:00 13.6 16 Nordeste 23 Nordeste 0 -- -- 73
2019-11-09 07:00:00 13.1 13 Norte 15 Norte 0 -- -- 81
2019-11-09 06:00:00 13.5 14 Norte 22 Norte 0 -- -- 82
2019-11-09 05:00:00 13.5 13 Norte 18 Norte 0 -- -- 80
2019-11-09 04:00:00 13.7 10 Norte 18 Norte 0 -- -- 78
2019-11-09 03:00:00 13.7 13 Norte 15 Norte 0 -- -- 76
2019-11-09 02:00:00 13.7 11 Norte 17 Norte 0 -- -- 80
2019-11-09 01:00:00 13.9 6 Norte 17 Norte 0 -- -- 82
2019-11-09 00:00:00 13.9 6 Norte 10 Nordeste 0 -- -- 86
2019-11-08 23:00:00 14.2 8 Nordeste 14 Norte 0 -- -- 85
2019-11-08 22:00:00 14.5 11 Norte 19 Norte 0 -- -- 84
2019-11-08 21:00:00 14.8 7 Norte 16 Norte 0 -- -- 85
2019-11-08 20:00:00 15.5 8 Norte 16 Norte 0 -- -- 84
2019-11-08 19:00:00 16 10 Norte 16 Noroeste 0 -- -- 83
2019-11-08 18:00:00 18.2 10 Noroeste 21 Noroeste 0 -- -- 75
2019-11-08 17:00:00 19 15 Noroeste 27 Norte 0 -- -- 72
2019-11-08 16:00:00 19.9 16 Noroeste 34 Norte 0 -- -- 66
2019-11-08 15:00:00 20.5 13 Noroeste 24 Noroeste 0 -- -- 65
2019-11-08 14:00:00 20 14 Noroeste 29 Norte 0 -- -- 62
2019-11-08 13:00:00 20.1 18 Norte 29 Norte 0 -- -- 60
2019-11-08 12:00:00 18.9 7 Norte 23 Norte 0 -- -- 64
2019-11-08 11:00:00 18.4 12 Noroeste 19 Noroeste 0 -- -- 65
2019-11-08 10:00:00 17.8 4 Norte 11 Norte 0 -- -- 64
2019-11-08 09:00:00 15.8 5 Nordeste 21 Nordeste 0 -- -- 69
2019-11-08 08:00:00 15 18 Norte 23 Norte 0 -- -- 72
2019-11-08 07:00:00 15 10 Noroeste 21 Nordeste 0 -- -- 76
2019-11-08 06:00:00 14.6 6 Nordeste 22 Norte 0 -- -- 84
2019-11-08 05:00:00 14.6 14 Norte 23 Norte 0 -- -- 86
2019-11-08 04:00:00 14.5 10 Nordeste 19 Norte 0 -- -- 88
2019-11-08 03:00:00 14.5 12 Norte 21 Norte 0 -- -- 89
2019-11-08 02:00:00 14.6 8 Norte 13 Norte 0 -- -- 89
2019-11-08 01:00:00 14.8 7 Norte 18 Sudeste 0 -- -- 89
2019-11-08 00:00:00 14.7 11 Norte 21 Norte 0 -- -- 90
2019-11-07 23:00:00 15.3 3 Este 21 Norte 0 -- -- 85
2019-11-07 22:00:00 14.9 6 Norte 13 Norte 0 -- -- 87
2019-11-07 21:00:00 15.1 5 Norte 12 Norte 0 -- -- 92
2019-11-07 20:00:00 15.8 5 Noroeste 9 Noroeste 0 -- -- 91
2019-11-07 19:00:00 16.1 4 Noroeste 10 Sudoeste 0 -- -- 87
2019-11-07 18:00:00 18.6 7 Noroeste 15 Noroeste 0 -- -- 76
2019-11-07 17:00:00 18.2 10 Noroeste 21 Noroeste 0 -- -- 74
2019-11-07 16:00:00 19.9 6 Noroeste 19 Noroeste 0 -- -- 68
2019-11-07 15:00:00 18.7 5 Noroeste 20 Noroeste 0 -- -- 74
2019-11-07 14:00:00 18.8 10 Noroeste 25 Norte 0 -- -- 72
2019-11-07 13:00:00 18 11 Noroeste 21 Noroeste 0 -- -- 72
2019-11-07 12:00:00 18.1 4 Norte 15 Noroeste 0 -- -- 73
2019-11-07 11:00:00 17 6 Noroeste 15 Noroeste 0 -- -- 73
2019-11-07 10:00:00 16.2 3 Noroeste 8 Noroeste 0 -- -- 77
2019-11-07 09:00:00 14.3 3 Noroeste 13 Noroeste 0 -- -- 83
2019-11-07 08:00:00 13.8 7 Norte 13 Nordeste 0 -- -- 83
2019-11-07 07:00:00 13.6 5 Nordeste 17 Nordeste 0 -- -- 84
2019-11-07 06:00:00 13.6 8 Norte 12 Norte 0 -- -- 84
2019-11-07 05:00:00 13.6 5 Norte 14 Norte 0 -- -- 83
2019-11-07 04:00:00 13.9 9 Norte 12 Nordeste 0 -- -- 81
2019-11-07 03:00:00 13.7 5 Norte 12 Norte 0 -- -- 80
2019-11-07 02:00:00 13.5 0 Calma 8 Norte 0 -- -- 82
2019-11-07 01:00:00 13.6 6 Norte 10 Norte 0 -- -- 81
2019-11-07 00:00:00 13.9 4 Norte 9 Norte 0 -- -- 79
2019-11-06 23:00:00 14.4 9 Norte 12 Norte 0 -- -- 76
2019-11-06 22:00:00 14.6 10 Nordeste 17 Norte 0 -- -- 75
2019-11-06 21:00:00 15 9 Norte 20 Norte 0 -- -- 75
2019-11-06 20:00:00 15.5 10 Norte 19 Norte 0 -- -- 76
2019-11-06 19:00:00 15.6 14 Norte 23 Oeste 0 -- -- 76
2019-11-06 18:00:00 16.4 15 Norte 27 Norte 0 -- -- 73
2019-11-06 17:00:00 16.4 18 Noroeste 27 Noroeste 0 -- -- 77
2019-11-06 16:00:00 17.6 13 Noroeste 24 Noroeste 0 -- -- 68
2019-11-06 15:00:00 18.1 13 Noroeste 24 Noroeste 0 -- -- 69
2019-11-06 14:00:00 18.2 6 Noroeste 17 Oeste 0 -- -- 66
2019-11-06 13:00:00 18.2 5 Noroeste 17 Noroeste 0 -- -- 63
2019-11-06 12:00:00 17.4 6 Noroeste 18 Noroeste 0 -- -- 65
2019-11-06 11:00:00 17.1 10 Noroeste 19 Noroeste 0 -- -- 68
2019-11-06 10:00:00 16.6 3 Norte 10 Noroeste 0 -- -- 72
2019-11-06 09:00:00 15.4 6 Noroeste 9 Noroeste 0 -- -- 79
2019-11-06 08:00:00 15 4 Norte 12 Nordeste 0 -- -- 83
2019-11-06 07:00:00 14.7 0 Calma 9 Sudoeste 0 -- -- 78
2019-11-06 06:00:00 14.8 5 Norte 15 Norte 0 -- -- 86
2019-11-06 05:00:00 15 9 Norte 12 Norte 0 -- -- 88
2019-11-06 04:00:00 15.2 8 Nordeste 11 Nordeste 0 -- -- 90
2019-11-06 03:00:00 15.3 0 Calma 10 Norte 0 -- -- 88
2019-11-06 02:00:00 15.1 10 Norte 15 Norte 0 -- -- 94
2019-11-06 01:00:00 15.5 5 Norte 10 Norte 0 -- -- 93
2019-11-06 00:00:00 15.8 6 Norte 15 Norte 0 -- -- 92
2019-11-05 23:00:00 16.2 5 Norte 10 Noroeste 0 -- -- 92
2019-11-05 22:00:00 16.6 2 Norte 16 Sudeste 0 -- -- 94
2019-11-05 21:00:00 16.2 2 Nordeste 15 Sudoeste 0 -- -- 92
2019-11-05 20:00:00 16.7 3 Norte 10 Nordeste 0 -- -- 89
2019-11-05 19:00:00 17.6 2 Norte 9 Sudeste 0 -- -- 86
2019-11-05 18:00:00 19.8 4 Norte 17 Este 0 -- -- 76
2019-11-05 17:00:00 21.1 3 Norte 17 Sudoeste 0 -- -- 70
2019-11-05 16:00:00 20.7 5 Noroeste 19 Sudoeste 0 -- -- 72
2019-11-05 15:00:00 21.8 6 Noroeste 19 Oeste 0 -- -- 68
2019-11-05 14:00:00 20.6 7 Oeste 18 Oeste 0 -- -- 71
2019-11-05 13:00:00 20.6 5 Oeste 22 Sur 0 -- -- 69
2019-11-05 12:00:00 19 5 Oeste 14 Sudoeste 0 -- -- 78
2019-11-05 11:00:00 18.6 5 Oeste 14 Noroeste 0 -- -- 79
2019-11-05 10:00:00 17.8 3 Noroeste 12 Este 0 -- -- 83
2019-11-05 09:00:00 16.2 3 Noroeste 14 Sur 0 -- -- 89
2019-11-05 08:00:00 15.4 5 Norte 11 Norte 0 -- -- 93
2019-11-05 07:00:00 15.2 3 Nordeste 13 Nordeste 0 -- -- 94
2019-11-05 06:00:00 15.1 0 Calma 11 Nordeste 0 -- -- 93
2019-11-05 05:00:00 15.5 4 Norte 10 Oeste 0 -- -- 94
2019-11-05 04:00:00 15.6 5 Norte 13 Sudeste 0 -- -- 91
2019-11-05 03:00:00 15.4 4 Norte 11 Sudeste 0 -- -- 85
2019-11-05 02:00:00 15.7 2 Noroeste 12 Noroeste 0 -- -- 93
2019-11-05 01:00:00 15.6 5 Noroeste 20 Sudeste 0 -- -- 91
2019-11-05 00:00:00 15.9 4 Norte 8 Nordeste 0 -- -- 91
2019-11-04 23:00:00 16.1 0 Calma 10 Sudoeste 0 -- -- 91
2019-11-04 22:00:00 16.4 4 Norte 11 Sudoeste 0 -- -- 91
2019-11-04 21:00:00 16.7 3 Noroeste 10 Oeste 0 -- -- 91
2019-11-04 20:00:00 16.8 3 Norte 12 Nordeste 0 -- -- 92
2019-11-04 19:00:00 16.9 3 Noroeste 12 Oeste 0 -- -- 92
2019-11-04 18:00:00 17.1 5 Noroeste 15 Noroeste 0 -- -- 89
2019-11-04 17:00:00 19.4 9 Noroeste 17 Oeste 0 -- -- 80
2019-11-04 16:00:00 20 5 Oeste 17 Sur 0 -- -- 77
2019-11-04 15:00:00 20.7 4 Norte 20 Sur 0 -- -- 75
2019-11-04 14:00:00 20 6 Norte 20 Noroeste 0 -- -- 78
2019-11-04 13:00:00 17.7 16 Noroeste 32 Noroeste 0 -- -- 88
2019-11-04 12:00:00 18.2 15 Norte 30 Norte 0 -- -- 85
2019-11-04 11:00:00 17.7 6 Oeste 17 Sudeste 0 -- -- 89
2019-11-04 10:00:00 17.8 6 Sudoeste 18 Sudeste 0 -- -- 88
2019-11-04 09:00:00 16.2 6 Noroeste 18 Norte 0 -- -- 94
2019-11-04 08:00:00 15.9 9 Norte 27 Norte 0 -- -- 97
2019-11-04 07:00:00 15.9 12 Norte 22 Norte 0 -- -- 97
2019-11-04 06:00:00 16.2 4 Este 12 Sudeste 0 -- -- 91
2019-11-04 05:00:00 16.6 3 Nordeste 18 Este 0 -- -- 81
2019-11-04 04:00:00 16.1 5 Sudeste 17 Sudeste 0 -- -- 95
2019-11-04 03:00:00 16.6 11 Norte 25 Norte 0 -- -- 95
2019-11-04 02:00:00 16.9 9 Norte 15 Norte 0 -- -- 81
2019-11-04 01:00:00 17.1 4 Sur 15 Sudeste 0 -- -- 90
2019-11-04 00:00:00 17.2 5 Sudeste 16 Sudeste 0 -- -- 94
2019-11-03 23:00:00 17.6 5 Sudeste 18 Norte 0 -- -- 92
2019-11-03 22:00:00 17.8 9 Norte 20 Norte 0 -- -- 90
2019-11-03 21:00:00 18.9 6 Norte 12 Norte 0 -- -- 74
2019-11-03 20:00:00 20.6 3 Sudeste 14 Sur 0 -- -- 71
2019-11-03 19:00:00 21.9 3 Sudeste 5 Sur 0 -- -- 52
2019-11-03 18:00:00 22.2 5 Sudeste 13 Sudeste 0 -- -- 71
2019-11-03 17:00:00 23 3 Sudeste 14 Norte 0 -- -- 68
2019-11-03 16:00:00 24.3 4 Sur 8 Sur 0 -- -- 70
2019-11-03 15:00:00 26 4 Sur 15 Sudeste 0 -- -- 46
2019-11-03 14:00:00 24.7 5 Sudeste 17 Este 0 -- -- 56
2019-11-03 13:00:00 25.3 4 Oeste 10 Noroeste 0 -- -- 61
2019-11-03 12:00:00 24.5 5 Noroeste 10 Noroeste 0 -- -- 54
2019-11-03 11:00:00 25.5 3 Norte 7 Noroeste 0 -- -- 51
2019-11-03 10:00:00 24.9 4 Noroeste 6 Noroeste 0 -- -- 38
2019-11-03 09:00:00 23 3 Nordeste 9 Norte 0 -- -- 40
2019-11-03 08:00:00 22.5 6 Norte 9 Norte 0 -- -- 41
2019-11-03 07:00:00 21.8 3 Nordeste 6 Norte 0 -- -- 43
2019-11-03 06:00:00 22.4 5 Norte 8 Norte 0 -- -- 41
2019-11-03 05:00:00 22.3 5 Norte 9 Norte 0 -- -- 41
2019-11-03 04:00:00 22 5 Norte 12 Norte 0 -- -- 42
2019-11-03 03:00:00 22.3 8 Norte 10 Norte 0 -- -- 42
2019-11-03 02:00:00 22.4 5 Norte 10 Norte 0 -- -- 42
2019-11-03 01:00:00 22.7 4 Noroeste 13 Norte 0 -- -- 42
2019-11-03 00:00:00 22.6 10 Norte 14 Nordeste 0 -- -- 41
2019-11-02 23:00:00 22.7 9 Norte 14 Norte 0 -- -- 42
2019-11-02 22:00:00 22.6 7 Norte 12 Norte 0 -- -- 42
2019-11-02 21:00:00 22.5 8 Norte 19 Norte 0 -- -- 44
2019-11-02 20:00:00 22.8 12 Norte 15 Norte 0 -- -- 45
2019-11-02 19:00:00 23.2 5 Norte 12 Oeste 0 -- -- 44
2019-11-02 18:00:00 25 7 Noroeste 13 Noroeste 0 -- -- 47
2019-11-02 17:00:00 26 7 Noroeste 18 Noroeste 0 -- -- 43
2019-11-02 16:00:00 26.7 10 Norte 24 Noroeste 0 -- -- 41
2019-11-02 15:00:00 27 13 Norte 25 Norte 0 -- -- 36
2019-11-02 14:00:00 27.9 10 Norte 20 Noroeste 0 -- -- 34
2019-11-02 13:00:00 27.9 10 Norte 20 Norte 0 -- -- 31
2019-11-02 12:00:00 26.9 8 Norte 18 Norte 0 -- -- 33
2019-11-02 11:00:00 25.9 7 Norte 19 Noroeste 0 -- -- 39
2019-11-02 10:00:00 25.1 3 Noroeste 15 Nordeste 0 -- -- 37
2019-11-02 09:00:00 24.6 4 Nordeste 28 Sudeste 0 -- -- 34
2019-11-02 08:00:00 23.6 6 Nordeste 23 Sudeste 0 -- -- 36
2019-11-02 07:00:00 22.9 5 Sudeste 21 Este 0 -- -- 40
2019-11-02 06:00:00 22.4 7 Norte 12 Noroeste 0 -- -- 41
2019-11-02 05:00:00 22.1 7 Norte 24 Sudeste 0 -- -- 45
2019-11-02 04:00:00 22.6 8 Nordeste 22 Sudeste 0 -- -- 48
2019-11-02 03:00:00 21.7 7 Norte 37 Sudeste 0 -- -- 52
2019-11-02 02:00:00 23.8 13 Este 46 Sudeste 0 -- -- 44
2019-11-02 01:00:00 23.5 12 Nordeste 44 Sudeste 0 -- -- 39
2019-11-02 00:00:00 23.2 6 Nordeste 47 Sudeste 0 -- -- 39
2019-11-01 23:00:00 24 7 Nordeste 38 Sudeste 0 -- -- 37
2019-11-01 22:00:00 23.5 6 Nordeste 30 Sudeste 0 -- -- 39
2019-11-01 21:00:00 23.6 10 Sudeste 37 Sudeste 0 -- -- 36
2019-11-01 20:00:00 24.6 6 Noroeste 31 Sur 0 -- -- 35
2019-11-01 19:00:00 25.6 9 Este 36 Sudeste 0 -- -- 28
2019-11-01 18:00:00 25.7 8 Nordeste 21 Sur 0 -- -- 42
2019-11-01 17:00:00 24.8 9 Norte 20 Noroeste 0 -- -- 49
2019-11-01 16:00:00 25.5 15 Noroeste 22 Norte 0 -- -- 48
2019-11-01 15:00:00 25.1 13 Noroeste 23 Noroeste 0 -- -- 47
2019-11-01 14:00:00 26 10 Noroeste 21 Norte 0 -- -- 44
2019-11-01 13:00:00 26 6 Norte 18 Noroeste 0 -- -- 40
2019-11-01 12:00:00 23.3 8 Noroeste 36 Sudeste 0 -- -- 54
2019-11-01 11:00:00 22.5 13 Norte 35 Este 0 -- -- 56
2019-11-01 10:00:00 23.4 8 Nordeste 40 Sudeste 0 -- -- 54
2019-11-01 09:00:00 20 9 Norte 31 Norte 0 -- -- 53
2019-11-01 08:00:00 18.6 19 Norte 28 Norte 0 -- -- 65
2019-11-01 07:00:00 19.1 14 Norte 29 Nordeste 0 -- -- 63
2019-11-01 06:00:00 19.4 14 Norte 37 Nordeste 0 -- -- 61
2019-11-01 05:00:00 18.9 18 Norte 34 Norte 0 -- -- 64
2019-11-01 04:00:00 18.9 18 Norte 38 Sur 0 -- -- 66
2019-11-01 03:00:00 19.8 13 Nordeste 44 Sudeste 0 -- -- 55
2019-11-01 02:00:00 19.6 18 Norte 41 Noroeste 0 -- -- 62
2019-11-01 01:00:00 19.7 16 Norte 32 Nordeste 0 -- -- 59
2019-11-01 00:00:00 19.8 14 Norte 36 Sudoeste 0 -- -- 61
2019-10-31 23:00:00 19.4 10 Norte 23 Norte 0 -- -- 64
2019-10-31 22:00:00 19.5 16 Norte 32 Sudeste 0 -- -- 66
2019-10-31 21:00:00 21 18 Norte 33 Noroeste 0 -- -- 63
2019-10-31 20:00:00 20.5 16 Norte 29 Nordeste 0 -- -- 59
2019-10-31 19:00:00 19.7 17 Norte 27 Noroeste 0 -- -- 74
2019-10-31 18:00:00 21.7 16 Norte 24 Norte 0 -- -- 70
2019-10-31 17:00:00 22 11 Norte 30 Noroeste 0 -- -- 70
2019-10-31 16:00:00 23.2 15 Noroeste 30 Noroeste 0 -- -- 63
2019-10-31 15:00:00 24.2 11 Norte 19 Noroeste 0 -- -- 53
2019-10-31 14:00:00 24.5 10 Noroeste 20 Noroeste 0 -- -- 62
2019-10-31 13:00:00 24.3 13 Noroeste 27 Noroeste 0 -- -- 49
2019-10-31 12:00:00 24.1 14 Norte 24 Noroeste 0 -- -- 54
2019-10-31 11:00:00 22.7 13 Noroeste 19 Norte 0 -- -- 60
2019-10-31 10:00:00 22.5 10 Norte 18 Norte 0 -- -- 52
2019-10-31 09:00:00 21.5 13 Norte 24 Nordeste 0 -- -- 54
2019-10-31 08:00:00 21.6 16 Norte 24 Nordeste 0 -- -- 52
2019-10-31 07:00:00 21.7 17 Norte 24 Norte 0 -- -- 52
2019-10-31 06:00:00 22 13 Norte 23 Norte 0 -- -- 50
2019-10-31 05:00:00 22.2 12 Norte 22 Norte 0 -- -- 48
2019-10-31 04:00:00 22.9 12 Norte 22 Norte 0 -- -- 46
2019-10-31 03:00:00 22.4 14 Norte 22 Norte 0 -- -- 50
2019-10-31 02:00:00 22.3 15 Norte 22 Norte 0 -- -- 48
2019-10-31 01:00:00 23.1 11 Norte 21 Norte 0 -- -- 47
2019-10-31 00:00:00 23 14 Norte 20 Nordeste 0 -- -- 49
2019-10-30 23:00:00 22.6 8 Norte 15 Norte 0 -- -- 52
2019-10-30 22:00:00 23.1 4 Noroeste 14 Oeste 0 -- -- 51
2019-10-30 21:00:00 22.8 6 Norte 10 Oeste 0 -- -- 52
2019-10-30 20:00:00 23.5 3 Noroeste 10 Sudeste 0 -- -- 50
2019-10-30 19:00:00 23.5 2 Norte 6 Norte 0 -- -- 52
2019-10-30 18:00:00 25.2 0 Calma 6 Noroeste 0 -- -- 49
2019-10-30 17:00:00 26 2 Nordeste 10 Noroeste 0 -- -- 53
2019-10-30 16:00:00 26.2 3 Este 10 Noroeste 0 -- -- 52
2019-10-30 15:00:00 26.6 4 Sudeste 10 Sudeste 0 -- -- 52
2019-10-30 14:00:00 26.1 5 Oeste 14 Sudoeste 0 -- -- 56
2019-10-30 13:00:00 26.5 5 Norte 11 Noroeste 0 -- -- 47
2019-10-30 12:00:00 26.2 5 Noroeste 13 Este 0 -- -- 48
2019-10-30 11:00:00 26 3 Norte 11 Este 0 -- -- 48
2019-10-30 10:00:00 23.7 4 Este 12 Sudeste 0 -- -- 49
2019-10-30 09:00:00 22.7 3 Este 10 Sudeste 0 -- -- 48
2019-10-30 08:00:00 21.6 2 Nordeste 6 Este 0 -- -- 49
2019-10-30 07:00:00 21.7 2 Sudeste 8 Este 0 -- -- 49
2019-10-30 06:00:00 22 2 Sudeste 8 Sudeste 0 -- -- 49
2019-10-30 05:00:00 22.5 2 Sudeste 6 Sudeste 0 -- -- 48
2019-10-30 04:00:00 22.2 0 Calma 5 Norte 0 -- -- 47
2019-10-30 03:00:00 22.6 0 Calma 4 Este 0 -- -- 47
2019-10-30 02:00:00 22.7 3 Nordeste 5 Nordeste 0 -- -- 47
2019-10-30 01:00:00 22.6 3 Norte 6 Nordeste 0 -- -- 48
2019-10-30 00:00:00 22.9 2 Este 6 Sudeste 0 -- -- 51
2019-10-29 23:00:00 22.6 0 Calma 4 Norte 0 -- -- 53
2019-10-29 22:00:00 22.9 3 Sudeste 4 Norte 0 -- -- 51
2019-10-29 21:00:00 23.2 0 Calma 6 Sudeste 0 -- -- 48
2019-10-29 20:00:00 23.3 3 Sudeste 12 Sudeste 0 -- -- 52
2019-10-29 19:00:00 22.8 4 Norte 8 Norte 0 -- -- 61
2019-10-29 18:00:00 24.5 6 Norte 10 Norte 0 -- -- 50
2019-10-29 17:00:00 25.7 8 Norte 14 Noroeste 0 -- -- 48
2019-10-29 16:00:00 26 11 Noroeste 18 Noroeste 0 -- -- 47
2019-10-29 15:00:00 27 10 Noroeste 17 Noroeste 0 -- -- 41
2019-10-29 14:00:00 27.5 7 Noroeste 14 Noroeste 0 -- -- 41
2019-10-29 13:00:00 26.9 6 Noroeste 13 Noroeste 0 -- -- 42
2019-10-29 12:00:00 25.2 6 Oeste 15 Sudoeste 0 -- -- 48
2019-10-29 11:00:00 26 4 Norte 10 Norte 0 -- -- 47
2019-10-29 10:00:00 25.1 0 Calma 6 Nordeste 0 -- -- 43
2019-10-29 09:00:00 23.2 3 Nordeste 5 Nordeste 0 -- -- 45
2019-10-29 08:00:00 22.2 0 Calma 7 Oeste 0 -- -- 45
2019-10-29 07:00:00 22.3 4 Oeste 10 Sudeste 0 -- -- 44
2019-10-29 06:00:00 21.8 4 Sudeste 8 Sudeste 0 -- -- 47
2019-10-29 05:00:00 21.6 2 Noroeste 9 Sudeste 0 -- -- 50
2019-10-29 04:00:00 21.8 3 Sudeste 9 Sudeste 0 -- -- 49
2019-10-29 03:00:00 21 3 Norte 8 Este 0 -- -- 54
2019-10-29 02:00:00 21.4 3 Norte 8 Norte 0 -- -- 52
2019-10-29 01:00:00 21.4 4 Norte 10 Noroeste 0 -- -- 54
2019-10-29 00:00:00 21.5 5 Noroeste 11 Noroeste 0 -- -- 55
2019-10-28 23:00:00 21.6 4 Noroeste 11 Noroeste 0 -- -- 56
2019-10-28 22:00:00 21.7 5 Norte 12 Noroeste 0 -- -- 56
2019-10-28 21:00:00 21.6 5 Norte 11 Norte 0 -- -- 58
2019-10-28 20:00:00 21.9 5 Norte 11 Oeste 0 -- -- 57
2019-10-28 19:00:00 21.9 2 Norte 11 Sur 0 -- -- 58
2019-10-28 18:00:00 22.7 5 Norte 16 Sudoeste 0 -- -- 57
2019-10-28 17:00:00 23.8 4 Nordeste 13 Sudeste 0 -- -- 56
2019-10-28 16:00:00 25.5 4 Oeste 23 Sudeste 0 -- -- 51
2019-10-28 15:00:00 24.9 6 Nordeste 20 Sur 0 -- -- 54
2019-10-28 14:00:00 25.4 6 Oeste 17 Sudoeste 0 -- -- 52
2019-10-28 13:00:00 26.3 5 Noroeste 17 Sudoeste 0 -- -- 50
2019-10-28 12:00:00 25.3 3 Oeste 16 Sudoeste 0 -- -- 55
2019-10-28 11:00:00 25 4 Nordeste 21 Este 0 -- -- 50
2019-10-28 10:00:00 23.3 6 Norte 12 Norte 0 -- -- 52
2019-10-28 09:00:00 21.8 3 Sur 8 Sudoeste 0 -- -- 56
2019-10-28 08:00:00 21.2 0 Calma 6 Sudeste 0 -- -- 51
2019-10-28 07:00:00 20.8 3 Noroeste 8 Oeste 0 -- -- 54
2019-10-28 06:00:00 21.4 3 Nordeste 7 Noroeste 0 -- -- 51
2019-10-28 05:00:00 21.6 5 Norte 13 Noroeste 0 -- -- 47
2019-10-28 04:00:00 20.6 4 Norte 7 Norte 0 -- -- 58
2019-10-28 03:00:00 21.4 5 Nordeste 12 Norte 0 -- -- 61
2019-10-28 02:00:00 20.9 4 Oeste 11 Oeste 0 -- -- 63
2019-10-28 01:00:00 21 2 Nordeste 12 Oeste 0 -- -- 66
2019-10-28 00:00:00 21.2 4 Norte 15 Noroeste 0 -- -- 64
2019-10-27 23:00:00 21.6 0 Calma 9 Nordeste 0 -- -- 62
2019-10-27 22:00:00 21.4 3 Nordeste 10 Este 0 -- -- 64
2019-10-27 21:00:00 21.1 4 Noroeste 12 Norte 0 -- -- 66
2019-10-27 20:00:00 21.9 2 Norte 6 Norte 0 -- -- 67
2019-10-27 19:00:00 22.7 2 Norte 9 Norte 0 -- -- 61
2019-10-27 18:00:00 24.9 0 Calma 10 Sur 0 -- -- 55
2019-10-27 17:00:00 25.9 3 Sur 23 Nordeste 0 -- -- 51
2019-10-27 16:00:00 26.8 6 Norte 16 Sudoeste 0 -- -- 52
2019-10-27 15:00:00 27.4 5 Norte 22 Nordeste 0 -- -- 49
2019-10-27 14:00:00 25.4 5 Norte 22 Sudeste 0 -- -- 57
2019-10-27 13:00:00 24.5 8 Norte 23 Noroeste 0 -- -- 61
2019-10-27 12:00:00 23.1 5 Oeste 15 Oeste 0 -- -- 67
2019-10-27 11:00:00 24.6 5 Nordeste 22 Sudeste 0 -- -- 62
2019-10-27 10:00:00 23.9 9 Noroeste 24 Este 0 -- -- 61
2019-10-27 09:00:00 21 6 Noroeste 20 Sudeste 0 -- -- 73
2019-10-27 08:00:00 20.8 5 Norte 14 Este 0 -- -- 76
2019-10-27 07:00:00 22 4 Noroeste 16 Nordeste 0 -- -- 64
2019-10-27 06:00:00 21.5 6 Nordeste 20 Sudoeste 0 -- -- 66
2019-10-27 05:00:00 21.7 6 Norte 16 Oeste 0 -- -- 65
2019-10-27 04:00:00 21.2 4 Norte 11 Nordeste 0 -- -- 74
2019-10-27 03:00:00 22 3 Noroeste 16 Norte 0 -- -- 70
2019-10-27 02:00:00 21 5 Noroeste 13 Oeste 0 -- -- 75
2019-10-27 01:00:00 20.7 15 Norte 37 Noroeste 0 -- -- 76
2019-10-27 00:00:00 22.7 3 Nordeste 15 Norte 0 -- -- 63
2019-10-26 23:00:00 22.9 3 Norte 11 Noroeste 0 -- -- 71
2019-10-26 22:00:00 22.6 6 Noroeste 21 Sudeste 0 -- -- 69
2019-10-26 21:00:00 22.7 7 Noroeste 24 Nordeste 0 -- -- 70
2019-10-26 20:00:00 22.4 7 Norte 38 Sudeste 0 -- -- 71
2019-10-26 19:00:00 21.4 12 Este 32 Sudeste 0.4 -- -- 71
2019-10-26 18:00:00 21.8 15 Norte 27 Noroeste 1.2 -- -- 65
2019-10-26 17:00:00 22.9 10 Noroeste 20 Noroeste 0.2 -- -- 60
2019-10-26 16:00:00 24 6 Noroeste 20 Sudeste 0 -- -- 53
2019-10-26 15:00:00 23.6 5 Norte 16 Oeste 0 -- -- 58
2019-10-26 14:00:00 23.3 6 Nordeste 15 Noroeste 0 -- -- 67
2019-10-26 13:00:00 22 3 Oeste 15 Oeste 0 -- -- 70
2019-10-26 12:00:00 21.8 5 Oeste 30 Noroeste 0 -- -- 76
2019-10-26 11:00:00 21.7 4 Nordeste 21 Oeste 0 -- -- 75
2019-10-26 10:00:00 21.6 15 Oeste 36 Noroeste 0.4 -- -- 71
2019-10-26 09:00:00 20.2 13 Norte 41 Oeste 1.6 -- -- 83
2019-10-26 08:00:00 17.8 7 Norte 32 Sudeste 0.4 -- -- 85
2019-10-26 07:00:00 18.2 6 Norte 27 Noroeste 0.4 -- -- 74
2019-10-26 06:00:00 18.2 19 Nordeste 29 Este 0.8 -- -- 88
2019-10-26 05:00:00 20.8 10 Este 47 Este 2 -- -- 72
2019-10-26 04:00:00 18.4 20 Este 70 Sudeste 1.4 -- -- 49
2019-10-26 03:00:00 23.7 4 Sudeste 17 Sudeste 0 -- -- 17
2019-10-26 02:00:00 22.6 3 Nordeste 8 Sudeste 0 -- -- 17
2019-10-26 01:00:00 23.2 3 Este 10 Sudeste 0 -- -- 16
2019-10-26 00:00:00 22.3 4 Sudeste 13 Sudeste 0 -- -- 20
2019-10-25 23:00:00 22.5 3 Sudoeste 9 Sudeste 0 -- -- 22
2019-10-25 22:00:00 22.9 4 Norte 17 Norte 0 -- -- 20
2019-10-25 21:00:00 23.2 4 Sudeste 13 Sudeste 0 -- -- 19
2019-10-25 20:00:00 21.7 6 Sudeste 15 Sudeste 0 -- -- 31
2019-10-25 19:00:00 22.5 4 Sur 22 Sur 0 -- -- 28
2019-10-25 18:00:00 22.8 5 Sudeste 22 Sudeste 0 -- -- 31
2019-10-25 17:00:00 23.8 5 Nordeste 15 Noroeste 0 -- -- 31
2019-10-25 16:00:00 23.6 4 Norte 14 Sudeste 0 -- -- 33
2019-10-25 15:00:00 23.9 4 Noroeste 17 Sudeste 0 -- -- 31
2019-10-25 14:00:00 25.6 5 Norte 22 Sudeste 0 -- -- 31
2019-10-25 13:00:00 24.7 5 Nordeste 21 Nordeste 0 -- -- 31
2019-10-25 12:00:00 22.6 4 Nordeste 9 Noroeste 0 -- -- 34
2019-10-25 11:00:00 21.4 2 Norte 8 Noroeste 0 -- -- 37
2019-10-25 10:00:00 19.8 3 Norte 16 Noroeste 0 -- -- 37
2019-10-25 09:00:00 18.3 6 Noroeste 19 Sudeste 0 -- -- 33
2019-10-25 08:00:00 17.6 4 Noroeste 18 Sudeste 0 -- -- 43
2019-10-25 07:00:00 17.6 6 Noroeste 18 Sur 0 -- -- 25
2019-10-25 06:00:00 15.8 6 Noroeste 16 Este 0 -- -- 37
2019-10-25 05:00:00 14.3 8 Norte 26 Sudeste 0 -- -- 78
2019-10-25 04:00:00 13.8 10 Sudeste 19 Sudeste 0 -- -- 74
2019-10-25 03:00:00 13.8 7 Nordeste 16 Sudeste 0 -- -- 80
2019-10-25 02:00:00 13.5 5 Nordeste 9 Sudeste 0 -- -- 89
2019-10-25 01:00:00 13.4 2 Sur 8 Sudeste 0 -- -- 87
2019-10-25 00:00:00 13.7 0 Calma 4 Sudeste 0 -- -- 87
2019-10-24 23:00:00 13.9 4 Nordeste 6 Norte 0 -- -- 88
2019-10-24 22:00:00 14.1 3 Nordeste 10 Nordeste 0 -- -- 87
2019-10-24 21:00:00 14.3 6 Nordeste 18 Norte 0 -- -- 85
2019-10-24 20:00:00 15 14 Norte 24 Norte 0 -- -- 83
2019-10-24 19:00:00 17.6 12 Norte 21 Norte 0 -- -- 68
2019-10-24 18:00:00 17.8 11 Norte 23 Norte 0 -- -- 62
2019-10-24 17:00:00 17.8 15 Norte 27 Norte 0 -- -- 62
2019-10-24 16:00:00 18.3 13 Norte 26 Noroeste 0 -- -- 59
2019-10-24 15:00:00 18.6 14 Norte 24 Noroeste 0 -- -- 56
2019-10-24 14:00:00 18.4 11 Noroeste 19 Noroeste 0 -- -- 61
2019-10-24 13:00:00 18.5 5 Noroeste 19 Noroeste 0 -- -- 62
2019-10-24 12:00:00 17.8 4 Noroeste 9 Noroeste 0 -- -- 64
2019-10-24 11:00:00 16.4 3 Noroeste 9 Nordeste 0 -- -- 69
2019-10-24 10:00:00 14.2 3 Noroeste 9 Nordeste 0 -- -- 70
2019-10-24 09:00:00 13.7 3 Sudeste 6 Sudeste 0 -- -- 73
2019-10-24 08:00:00 13.5 5 Nordeste 17 Nordeste 0 -- -- 73
2019-10-24 07:00:00 13.4 9 Nordeste 17 Nordeste 0 -- -- 70
2019-10-24 06:00:00 13.6 7 Norte 9 Nordeste 0 -- -- 73
2019-10-24 05:00:00 13.3 8 Nordeste 14 Norte 0 -- -- 74
2019-10-24 04:00:00 13.5 9 Norte 13 Norte 0 -- -- 74
2019-10-24 03:00:00 13.6 3 Este 8 Nordeste 0 -- -- 80
2019-10-24 02:00:00 13.4 6 Nordeste 12 Nordeste 0 -- -- 83
2019-10-24 01:00:00 13.6 10 Nordeste 13 Norte 0 -- -- 83
2019-10-24 00:00:00 13.8 10 Nordeste 13 Nordeste 0 -- -- 84
2019-10-23 23:00:00 14 6 Norte 10 Norte 0 -- -- 85
2019-10-23 22:00:00 14.2 0 Calma 8 Norte 0 -- -- 85
2019-10-23 21:00:00 15.2 2 Norte 6 Noroeste 0 -- -- 81
2019-10-23 20:00:00 15.6 2 Noroeste 11 Noroeste 0 -- -- 78
2019-10-23 19:00:00 16.1 3 Norte 9 Norte 0 -- -- 73
2019-10-23 18:00:00 16 3 Noroeste 13 Noroeste 0 -- -- 73
2019-10-23 17:00:00 16 6 Noroeste 15 Noroeste 0 -- -- 72
2019-10-23 16:00:00 16.3 9 Norte 15 Noroeste 0 -- -- 71
2019-10-23 15:00:00 16.9 10 Noroeste 15 Norte 0 -- -- 64
2019-10-23 14:00:00 17.2 5 Norte 18 Noroeste 0 -- -- 57
2019-10-23 13:00:00 17.8 7 Noroeste 17 Noroeste 0 -- -- 52
2019-10-23 12:00:00 17.6 8 Noroeste 16 Norte 0 -- -- 52
2019-10-23 11:00:00 15.5 4 Noroeste 10 Nordeste 0 -- -- 59
2019-10-23 10:00:00 14 5 Nordeste 12 Nordeste 0 -- -- 64
2019-10-23 09:00:00 13.1 6 Nordeste 9 Nordeste 0 -- -- 70
2019-10-23 08:00:00 12.9 6 Norte 9 Norte 0 -- -- 70
2019-10-23 07:00:00 13.1 4 Nordeste 6 Norte 0 -- -- 69
2019-10-23 06:00:00 13.3 0 Calma 4 Oeste 0 -- -- 71
2019-10-23 05:00:00 13.6 0 Calma 4 Oeste 0 -- -- 74
2019-10-23 04:00:00 14.2 0 Calma 4 Este 0 -- -- 73
2019-10-23 03:00:00 13.9 0 Calma 5 Nordeste 0 -- -- 73
2019-10-23 02:00:00 14 2 Sudoeste 11 Norte 0 -- -- 72
2019-10-23 01:00:00 14.3 7 Nordeste 13 Nordeste 0 -- -- 71
2019-10-23 00:00:00 14.6 8 Norte 13 Nordeste 0 -- -- 71
2019-10-22 23:00:00 14.8 0 Calma 9 Noroeste 0 -- -- 67
2019-10-22 22:00:00 15 3 Noroeste 13 Noroeste 0 -- -- 73
2019-10-22 21:00:00 15.1 7 Noroeste 14 Oeste 0 -- -- 73
2019-10-22 20:00:00 15.7 3 Norte 8 Norte 0 -- -- 69
2019-10-22 19:00:00 17.1 3 Norte 13 Noroeste 0 -- -- 64
2019-10-22 18:00:00 17.3 3 Norte 13 Oeste 0 -- -- 58
2019-10-22 17:00:00 17.6 6 Oeste 13 Oeste 0 -- -- 58
2019-10-22 16:00:00 18.8 5 Norte 21 Oeste 0 -- -- 53
2019-10-22 15:00:00 18.4 6 Oeste 20 Noroeste 0 -- -- 51
2019-10-22 14:00:00 19.7 10 Noroeste 20 Noroeste 0 -- -- 49
2019-10-22 13:00:00 19.1 9 Norte 22 Noroeste 0 -- -- 49
2019-10-22 12:00:00 17.9 9 Noroeste 15 Noroeste 0 -- -- 49
2019-10-22 11:00:00 16.8 3 Norte 13 Noroeste 0 -- -- 53
2019-10-22 10:00:00 14.1 3 Norte 11 Este 0 -- -- 62
2019-10-22 09:00:00 13.3 7 Nordeste 13 Norte 0 -- -- 67
2019-10-22 08:00:00 13.3 0 Calma 16 Nordeste 0 -- -- 66
2019-10-22 07:00:00 13.1 9 Nordeste 17 Nordeste 0 -- -- 68
2019-10-22 06:00:00 13 5 Norte 18 Nordeste 0 -- -- 70
2019-10-22 05:00:00 13.1 12 Nordeste 17 Nordeste 0 -- -- 64
2019-10-22 04:00:00 13.5 5 Norte 11 Nordeste 0 -- -- 62
2019-10-22 03:00:00 13.5 11 Nordeste 17 Nordeste 0 -- -- 65
2019-10-22 02:00:00 13.5 6 Norte 13 Nordeste 0 -- -- 73
2019-10-22 01:00:00 13.7 9 Nordeste 13 Norte 0 -- -- 73
2019-10-22 00:00:00 14.1 10 Nordeste 13 Nordeste 0 -- -- 72